Time;durP1;ratioP1;P1;durP2;ratioP2;P2;SDS_P1;SDS_P2;PMS_P1;PMS_P2;Temp;Humidity;BMP_temperature;BMP_pressure;BME280_temperature;BME280_humidity;BME280_pressure;Samples;Min_cycle;Max_cycle;Signal;HPM_P1;HPM_P2
2024/04/02 00:01:54;;;;;;;1.63;0.80;;;19.40;61.70;;;;;;5050819;28;20029;-47
2024/04/02 00:04:19;;;;;;;1.48;0.70;;;19.40;61.70;;;;;;5052506;28;20039;-54
2024/04/02 00:06:45;;;;;;;0.93;0.50;;;19.40;61.70;;;;;;5054800;28;20155;-53
2024/04/02 00:09:11;;;;;;;1.20;0.60;;;19.40;61.60;;;;;;5048378;28;20083;-53
2024/04/02 00:11:36;;;;;;;0.90;0.60;;;19.40;61.60;;;;;;5041502;28;20083;-51
2024/04/02 00:14:02;;;;;;;0.95;0.60;;;19.40;61.70;;;;;;5044853;28;20036;-62
2024/04/02 00:16:27;;;;;;;1.50;0.75;;;19.40;61.60;;;;;;5041521;28;20116;-56
2024/04/02 00:18:53;;;;;;;0.80;0.40;;;19.40;61.70;;;;;;5050712;28;20484;-54
2024/04/02 00:21:20;;;;;;;1.13;0.60;;;19.40;61.60;;;;;;5052139;28;20501;-52
2024/04/02 00:23:46;;;;;;;1.63;0.82;;;19.40;61.60;;;;;;5054217;28;20029;-53
2024/04/02 00:26:12;;;;;;;0.82;0.40;;;19.40;61.60;;;;;;5042064;28;20036;-54
2024/04/02 00:28:38;;;;;;;1.60;0.63;;;19.40;61.60;;;;;;5034459;28;20060;-51
2024/04/02 00:31:07;;;;;;;0.90;0.40;;;19.40;61.60;;;;;;5034810;28;20056;-54
2024/04/02 00:33:32;;;;;;;1.73;0.70;;;19.40;61.60;;;;;;5035021;28;20052;-57
2024/04/02 00:36:05;;;;;;;2.00;0.70;;;19.40;61.60;;;;;;5046899;28;20079;-53
2024/04/02 00:38:32;;;;;;;0.70;0.60;;;19.40;61.60;;;;;;5046323;28;20029;-53
2024/04/02 00:40:58;;;;;;;0.68;0.40;;;19.40;61.60;;;;;;5049255;28;20112;-52
2024/04/02 00:43:24;;;;;;;0.63;0.47;;;19.40;61.60;;;;;;5058491;28;20115;-54
2024/04/02 00:45:49;;;;;;;1.70;0.70;;;19.40;61.70;;;;;;5061836;28;20037;-50
2024/04/02 00:48:16;;;;;;;0.75;0.65;;;19.40;61.70;;;;;;5062955;28;20371;-52
2024/04/02 00:50:42;;;;;;;0.73;0.50;;;19.40;61.60;;;;;;5060856;28;20123;-55
2024/04/02 00:53:08;;;;;;;0.45;0.30;;;19.40;62.30;;;;;;5057331;28;20135;-51
2024/04/02 00:55:37;;;;;;;2.92;0.70;;;19.40;61.60;;;;;;5038093;28;20037;-52
2024/04/02 00:58:05;;;;;;;0.98;0.70;;;19.40;61.60;;;;;;5036376;28;20112;-57
2024/04/02 01:00:31;;;;;;;0.43;0.32;;;19.30;61.60;;;;;;5041087;28;20474;-51
2024/04/02 01:02:56;;;;;;;0.85;0.40;;;19.40;61.70;;;;;;5034012;28;20032;-53
2024/04/02 01:05:23;;;;;;;1.25;0.50;;;19.40;61.60;;;;;;5051752;28;20044;-55
2024/04/02 01:07:49;;;;;;;0.55;0.40;;;19.30;61.60;;;;;;5046211;28;20529;-48
2024/04/02 01:10:15;;;;;;;0.60;0.40;;;19.30;61.70;;;;;;5049292;28;20119;-50
2024/04/02 01:12:40;;;;;;;0.70;0.40;;;19.30;61.80;;;;;;5048323;28;20561;-52
2024/04/02 01:15:06;;;;;;;0.55;0.40;;;19.40;61.80;;;;;;5043494;28;20040;-52
2024/04/02 01:17:31;;;;;;;0.80;0.50;;;19.30;61.70;;;;;;5057195;28;20071;-56
2024/04/02 01:19:57;;;;;;;1.05;0.70;;;19.30;61.80;;;;;;5054787;28;20024;-49
2024/04/02 01:22:22;;;;;;;1.17;0.45;;;19.30;61.80;;;;;;5050676;28;20067;-50
2024/04/02 01:24:57;;;;;;;0.47;0.32;;;19.30;61.80;;;;;;5038549;28;20030;-50
2024/04/02 01:27:23;;;;;;;0.85;0.50;;;19.30;61.90;;;;;;5037116;28;20021;-48
2024/04/02 01:29:48;;;;;;;1.08;0.52;;;19.30;61.80;;;;;;5050804;28;20020;-53
2024/04/02 01:32:14;;;;;;;1.77;0.70;;;19.20;61.80;;;;;;5046513;28;20051;-49
2024/04/02 01:34:39;;;;;;;0.50;0.40;;;19.30;61.90;;;;;;5040347;28;20693;-56
2024/04/02 01:37:05;;;;;;;0.52;0.30;;;19.30;62.00;;;;;;5045590;28;20033;-54
2024/04/02 01:39:30;;;;;;;0.50;0.28;;;19.30;62.00;;;;;;5043542;28;20025;-51
2024/04/02 01:41:56;;;;;;;0.85;0.60;;;19.30;62.00;;;;;;5036959;28;20430;-53
2024/04/02 01:44:21;;;;;;;1.70;0.60;;;19.20;62.00;;;;;;5051693;28;20025;-55
2024/04/02 01:46:47;;;;;;;0.28;0.25;;;19.20;62.00;;;;;;5047969;28;20028;-54
2024/04/02 01:49:12;;;;;;;0.95;0.38;;;19.20;61.90;;;;;;5037435;28;20025;-56
2024/04/02 01:51:37;;;;;;;0.60;0.40;;;19.20;62.00;;;;;;5037808;22;20037;-66
2024/04/02 01:54:03;;;;;;;0.52;0.30;;;19.20;61.90;;;;;;5036439;28;20036;-66
2024/04/02 01:56:28;;;;;;;0.52;0.30;;;19.20;61.90;;;;;;5005078;28;21131;-66
2024/04/02 01:58:54;;;;;;;0.40;0.30;;;19.20;61.90;;;;;;5016443;28;20045;-66
2024/04/02 02:01:20;;;;;;;0.63;0.43;;;19.20;61.90;;;;;;5020824;28;20099;-66
2024/04/02 02:03:46;;;;;;;0.40;0.30;;;19.20;61.90;;;;;;5012175;28;20038;-65
2024/04/02 02:06:11;;;;;;;0.50;0.40;;;19.20;62.00;;;;;;5009213;28;20048;-66
2024/04/02 02:08:37;;;;;;;0.38;0.20;;;19.20;62.00;;;;;;4990248;28;20713;-64
2024/04/02 02:11:03;;;;;;;0.70;0.40;;;19.20;61.90;;;;;;5013586;28;20053;-66
2024/04/02 02:13:35;;;;;;;0.65;0.30;;;19.20;61.90;;;;;;5004860;28;20576;-66
2024/04/02 02:16:02;;;;;;;0.30;0.30;;;19.20;61.90;;;;;;4995814;28;20231;-66
2024/04/02 02:18:31;;;;;;;0.55;0.40;;;19.20;62.00;;;;;;4982089;28;20701;-65
2024/04/02 02:20:58;;;;;;;0.90;0.50;;;19.20;61.90;;;;;;5017713;28;20046;-66
2024/04/02 02:23:25;;;;;;;0.68;0.38;;;19.20;61.90;;;;;;5022753;28;20029;-66
2024/04/02 02:25:50;;;;;;;0.75;0.30;;;19.20;61.90;;;;;;5003132;28;20079;-64
2024/04/02 02:28:16;;;;;;;0.30;0.30;;;19.20;61.80;;;;;;5005663;28;20030;-66
2024/04/02 02:30:42;;;;;;;0.65;0.30;;;19.20;61.90;;;;;;5013019;28;20044;-65
2024/04/02 02:33:07;;;;;;;0.38;0.30;;;19.20;61.80;;;;;;5016889;28;20095;-65
2024/04/02 02:35:33;;;;;;;0.43;0.40;;;19.20;61.90;;;;;;5019838;28;20158;-66
2024/04/02 02:37:58;;;;;;;0.45;0.20;;;19.20;61.90;;;;;;5007510;28;20043;-66
2024/04/02 02:40:24;;;;;;;0.22;0.22;;;19.20;61.90;;;;;;5020229;28;20033;-66
2024/04/02 02:42:49;;;;;;;0.63;0.30;;;19.20;61.90;;;;;;5020258;28;20048;-66
2024/04/02 02:45:15;;;;;;;0.47;0.35;;;19.20;61.80;;;;;;5018519;28;20030;-66
2024/04/02 02:47:40;;;;;;;0.40;0.25;;;19.20;61.90;;;;;;5017729;28;20080;-66
2024/04/02 02:50:06;;;;;;;0.50;0.30;;;19.20;61.80;;;;;;5017768;28;20033;-66
2024/04/02 02:52:31;;;;;;;0.28;0.28;;;19.20;61.90;;;;;;5020115;28;20026;-66
2024/04/02 02:54:57;;;;;;;0.30;0.25;;;19.20;61.90;;;;;;5017985;28;20037;-66
2024/04/02 02:57:22;;;;;;;0.20;0.20;;;19.20;61.90;;;;;;5013794;28;20034;-66
2024/04/02 02:59:47;;;;;;;0.40;0.30;;;19.20;61.90;;;;;;5016856;28;20028;-66
2024/04/02 03:02:14;;;;;;;0.40;0.40;;;19.20;61.80;;;;;;5010760;28;20034;-63
2024/04/02 03:04:40;;;;;;;0.30;0.30;;;19.20;61.80;;;;;;5016209;28;20416;-66
2024/04/02 03:07:05;;;;;;;0.43;0.30;;;19.10;61.90;;;;;;5014784;28;20044;-66
2024/04/02 03:09:32;;;;;;;0.45;0.20;;;19.20;61.90;;;;;;5018358;28;20492;-66
2024/04/02 03:11:58;;;;;;;0.75;0.40;;;19.10;61.90;;;;;;5021428;28;20220;-65
2024/04/02 03:14:23;;;;;;;0.52;0.20;;;19.20;61.90;;;;;;5000227;28;20048;-65
2024/04/02 03:16:49;;;;;;;0.20;0.20;;;19.10;61.80;;;;;;5022177;28;20053;-65
2024/04/02 03:19:14;;;;;;;0.50;0.40;;;19.20;62.00;;;;;;5018428;28;20029;-63
2024/04/02 03:21:39;;;;;;;0.25;0.25;;;19.20;61.90;;;;;;5021782;28;20044;-66
2024/04/02 03:24:05;;;;;;;0.30;0.30;;;19.20;61.90;;;;;;5023261;28;20479;-65
2024/04/02 03:26:30;;;;;;;0.20;0.20;;;19.20;62.00;;;;;;5021928;28;20032;-66
2024/04/02 03:28:56;;;;;;;0.30;0.30;;;19.20;61.90;;;;;;5013611;28;20134;-65
2024/04/02 03:31:21;;;;;;;0.22;0.22;;;19.20;61.80;;;;;;5014346;28;20105;-65
2024/04/02 03:33:47;;;;;;;0.50;0.22;;;19.10;61.90;;;;;;5002701;28;20419;-66
2024/04/02 03:36:13;;;;;;;0.90;0.30;;;19.10;61.80;;;;;;5019589;28;20061;-66
2024/04/02 03:38:39;;;;;;;0.57;0.25;;;19.10;61.90;;;;;;5016553;28;20033;-66
2024/04/02 03:41:14;;;;;;;0.50;0.25;;;19.10;61.80;;;;;;5023378;28;20172;-66
2024/04/02 03:43:44;;;;;;;0.20;0.20;;;19.10;61.80;;;;;;5020514;28;20431;-66
2024/04/02 03:46:11;;;;;;;1.58;0.30;;;19.10;61.80;;;;;;5022500;28;20049;-66
2024/04/02 03:48:37;;;;;;;0.47;0.28;;;19.10;61.90;;;;;;5019749;28;20488;-66
2024/04/02 03:51:03;;;;;;;0.30;0.30;;;19.10;61.80;;;;;;5022540;28;20041;-65
2024/04/02 03:53:28;;;;;;;0.50;0.22;;;19.10;61.90;;;;;;5021381;28;20171;-66
2024/04/02 03:56:05;;;;;;;0.20;0.20;;;19.10;61.90;;;;;;5022334;28;20033;-65
2024/04/02 03:58:31;;;;;;;0.30;0.30;;;19.10;61.80;;;;;;5008272;28;20409;-66
2024/04/02 04:00:57;;;;;;;0.20;0.20;;;19.10;61.80;;;;;;5002645;28;20034;-65
2024/04/02 04:03:23;;;;;;;0.40;0.20;;;19.10;61.90;;;;;;4983727;28;20029;-65
2024/04/02 04:06:09;;;;;;;0.30;0.30;;;19.10;61.80;;;;;;4997562;28;20515;-65
2024/04/02 04:08:37;;;;;;;0.65;0.20;;;19.10;61.80;;;;;;5017560;28;20616;-66
2024/04/02 04:11:03;;;;;;;0.22;0.20;;;19.10;61.80;;;;;;4992097;28;20030;-65
2024/04/02 04:13:29;;;;;;;0.63;0.50;;;19.10;61.80;;;;;;5017527;28;20037;-66
2024/04/02 04:15:59;;;;;;;0.50;0.25;;;19.10;61.70;;;;;;4994913;28;20437;-66
2024/04/02 04:18:26;;;;;;;0.40;0.40;;;19.10;61.70;;;;;;4999021;28;20034;-65
2024/04/02 04:20:58;;;;;;;0.25;0.20;;;19.10;61.70;;;;;;4998475;28;20033;-64
2024/04/02 04:23:25;;;;;;;1.92;0.28;;;19.10;61.70;;;;;;5009483;28;20036;-65
2024/04/02 04:25:57;;;;;;;0.30;0.20;;;19.10;61.60;;;;;;5014620;28;20034;-65
2024/04/02 04:28:24;;;;;;;0.70;0.40;;;19.10;61.60;;;;;;5005256;28;20082;-65
2024/04/02 04:30:57;;;;;;;0.50;0.47;;;19.10;61.60;;;;;;5007239;28;20088;-66
2024/04/02 04:33:23;;;;;;;0.40;0.32;;;19.10;61.60;;;;;;5012497;28;20392;-65
2024/04/02 04:35:49;;;;;;;0.68;0.40;;;19.10;61.50;;;;;;5019341;28;20029;-66
2024/04/02 04:38:15;;;;;;;0.20;0.20;;;19.10;61.50;;;;;;5018697;28;20040;-66
2024/04/02 04:40:41;;;;;;;0.30;0.30;;;19.10;61.50;;;;;;5019820;28;20033;-66
2024/04/02 04:43:07;;;;;;;0.82;0.30;;;19.10;61.50;;;;;;5009367;28;20037;-66
2024/04/02 04:45:33;;;;;;;0.65;0.20;;;19.10;61.50;;;;;;5010363;28;20044;-66
2024/04/02 04:47:59;;;;;;;0.32;0.20;;;19.10;61.50;;;;;;5015631;28;20022;-67
2024/04/02 04:50:25;;;;;;;0.82;0.28;;;19.10;61.50;;;;;;5002159;28;20409;-66
2024/04/02 04:52:51;;;;;;;0.22;0.20;;;19.10;61.50;;;;;;5013537;28;20037;-66
2024/04/02 04:55:17;;;;;;;0.20;0.20;;;19.10;61.50;;;;;;5020864;28;20504;-65
2024/04/02 04:57:43;;;;;;;0.25;0.10;;;19.10;61.40;;;;;;5008888;28;20124;-66
2024/04/02 05:00:08;;;;;;;0.25;0.20;;;19.10;61.40;;;;;;5021807;28;20029;-65
2024/04/02 05:02:34;;;;;;;0.30;0.20;;;19.10;61.40;;;;;;5022216;28;20034;-66
2024/04/02 05:04:59;;;;;;;0.40;0.20;;;19.10;61.50;;;;;;5003930;28;20034;-66
2024/04/02 05:07:25;;;;;;;0.43;0.22;;;19.10;61.50;;;;;;5012599;28;20042;-66
2024/04/02 05:09:51;;;;;;;0.40;0.20;;;19.10;61.40;;;;;;5001555;28;20115;-66
2024/04/02 05:12:17;;;;;;;0.38;0.30;;;19.10;61.40;;;;;;5021346;28;20124;-66
2024/04/02 05:14:43;;;;;;;0.52;0.35;;;19.10;61.40;;;;;;5020085;28;20034;-65
2024/04/02 05:17:09;;;;;;;1.85;0.20;;;19.10;61.40;;;;;;5020227;28;20036;-68
2024/04/02 05:19:34;;;;;;;0.57;0.28;;;19.10;61.30;;;;;;5022136;28;20550;-67
2024/04/02 05:21:59;;;;;;;0.20;0.20;;;19.10;61.40;;;;;;5009325;28;20026;-67
2024/04/02 05:24:25;;;;;;;0.30;0.30;;;19.10;61.40;;;;;;5000865;28;20036;-66
2024/04/02 05:26:50;;;;;;;0.30;0.20;;;19.10;61.30;;;;;;4999335;28;20033;-67
2024/04/02 05:29:16;;;;;;;0.38;0.32;;;19.10;61.40;;;;;;5005248;28;20021;-66
2024/04/02 05:31:43;;;;;;;0.40;0.20;;;19.20;61.40;;;;;;4993269;28;20440;-68
2024/04/02 05:34:08;;;;;;;0.30;0.30;;;19.20;61.40;;;;;;5020207;28;20398;-69
2024/04/02 05:36:34;;;;;;;0.55;0.40;;;19.20;61.30;;;;;;5000796;28;20044;-68
2024/04/02 05:38:59;;;;;;;1.38;0.30;;;19.20;61.40;;;;;;5017198;28;20033;-68
2024/04/02 05:41:25;;;;;;;2.30;0.30;;;19.20;61.40;;;;;;5021705;28;20186;-69
2024/04/02 05:43:50;;;;;;;0.73;0.45;;;19.10;61.40;;;;;;5022231;28;20030;-70
2024/04/02 05:46:16;;;;;;;0.70;0.30;;;19.10;61.40;;;;;;5022746;28;20036;-69
2024/04/02 05:48:44;;;;;;;0.47;0.32;;;19.20;61.50;;;;;;5002023;28;20101;-67
2024/04/02 05:51:10;;;;;;;0.98;0.25;;;19.10;61.40;;;;;;5014462;28;20041;-68
2024/04/02 05:53:35;;;;;;;0.45;0.20;;;19.10;61.40;;;;;;5020331;28;20454;-69
2024/04/02 05:56:01;;;;;;;1.38;0.30;;;19.10;61.50;;;;;;5024598;28;20064;-69
2024/04/02 05:58:26;;;;;;;1.75;0.30;;;19.10;61.50;;;;;;5023803;28;20026;-68
2024/04/02 06:01:05;;;;;;;1.23;0.35;;;19.10;61.50;;;;;;5022922;28;20403;-69
2024/04/02 06:03:30;;;;;;;1.85;0.40;;;19.10;61.50;;;;;;5023559;28;20045;-69
2024/04/02 06:05:56;;;;;;;0.30;0.30;;;19.10;61.50;;;;;;5018512;28;20515;-68
2024/04/02 06:08:22;;;;;;;1.10;0.47;;;19.10;61.50;;;;;;5002516;28;20072;-66
2024/04/02 06:10:47;;;;;;;0.63;0.35;;;19.10;61.40;;;;;;5021696;28;20030;-67
2024/04/02 06:13:13;;;;;;;1.15;0.43;;;19.10;61.40;;;;;;5023529;28;20044;-67
2024/04/02 06:15:38;;;;;;;1.83;0.32;;;19.20;61.60;;;;;;5022862;28;20369;-68
2024/04/02 06:18:05;;;;;;;0.75;0.30;;;19.10;61.50;;;;;;5023070;28;20029;-70
2024/04/02 06:20:30;;;;;;;0.65;0.30;;;19.10;61.50;;;;;;5021183;28;20057;-70
2024/04/02 06:22:55;;;;;;;0.40;0.30;;;19.10;61.50;;;;;;5007003;28;20080;-68
2024/04/02 06:25:21;;;;;;;0.77;0.57;;;19.10;61.50;;;;;;5021649;28;20025;-69
2024/04/02 06:27:46;;;;;;;0.95;0.38;;;19.10;61.50;;;;;;5005222;28;20485;-67
2024/04/02 06:30:12;;;;;;;2.90;0.47;;;19.10;61.60;;;;;;5022477;28;20044;-68
2024/04/02 06:32:37;;;;;;;0.77;0.77;;;19.10;61.60;;;;;;5004023;28;20520;-68
2024/04/02 06:35:03;;;;;;;1.15;0.70;;;19.10;61.60;;;;;;5020659;28;20045;-69
2024/04/02 06:37:30;;;;;;;2.55;1.10;;;19.10;61.60;;;;;;5024149;28;20041;-69
2024/04/02 06:39:56;;;;;;;1.85;1.00;;;19.20;61.60;;;;;;5008251;28;20036;-68
2024/04/02 06:42:22;;;;;;;3.50;1.50;;;19.20;61.50;;;;;;5023859;28;20117;-69
2024/04/02 06:44:47;;;;;;;2.03;0.98;;;19.20;61.50;;;;;;5010757;28;20112;-69
2024/04/02 06:47:13;;;;;;;3.75;1.25;;;19.20;61.40;;;;;;5024150;28;20038;-69
2024/04/02 06:49:39;;;;;;;2.75;1.20;;;19.20;61.40;;;;;;5019174;28;20025;-67
2024/04/02 06:52:05;;;;;;;3.35;1.25;;;19.20;61.30;;;;;;5009520;28;20071;-66
2024/04/02 06:54:30;;;;;;;2.55;1.30;;;19.20;61.30;;;;;;5024174;28;20109;-67
2024/04/02 06:56:56;;;;;;;3.30;1.83;;;19.20;61.30;;;;;;5024174;28;20100;-69
2024/04/02 06:59:21;;;;;;;2.55;1.10;;;19.20;61.40;;;;;;5023917;28;20421;-70
2024/04/02 07:01:47;;;;;;;3.10;1.33;;;19.20;61.40;;;;;;5016640;28;20027;-70
2024/04/02 07:04:12;;;;;;;2.03;1.50;;;19.20;61.40;;;;;;5023482;28;20648;-67
2024/04/02 07:06:38;;;;;;;3.58;1.42;;;19.20;61.40;;;;;;5021714;28;20044;-67
2024/04/02 07:09:04;;;;;;;5.60;1.67;;;19.20;61.40;;;;;;5018794;28;20044;-67
2024/04/02 07:11:29;;;;;;;2.67;1.58;;;19.20;61.40;;;;;;5017899;28;20520;-69
2024/04/02 07:13:55;;;;;;;2.38;1.75;;;19.20;61.50;;;;;;5021869;28;20184;-69
2024/04/02 07:16:20;;;;;;;4.82;2.03;;;19.20;61.40;;;;;;5001392;28;20435;-69
2024/04/02 07:18:46;;;;;;;6.78;2.03;;;19.20;61.50;;;;;;5014897;28;20037;-69
2024/04/02 07:21:11;;;;;;;6.50;2.05;;;19.20;61.40;;;;;;5011934;28;20048;-69
2024/04/02 07:23:37;;;;;;;3.17;1.75;;;19.20;61.50;;;;;;5015581;28;20037;-68
2024/04/02 07:26:03;;;;;;;3.03;1.80;;;19.20;61.40;;;;;;5010935;28;20068;-68
2024/04/02 07:28:29;;;;;;;4.45;2.17;;;19.20;61.30;;;;;;5008551;28;20067;-68
2024/04/02 07:30:55;;;;;;;2.67;1.80;;;19.20;62.00;;;;;;4991620;28;20030;-69
2024/04/02 07:33:21;;;;;;;3.92;1.92;;;19.20;61.80;;;;;;5016704;28;20099;-69
2024/04/02 07:35:47;;;;;;;3.78;2.00;;;19.20;61.50;;;;;;5016412;28;20042;-69
2024/04/02 07:38:13;;;;;;;5.10;1.77;;;19.20;61.60;;;;;;5002438;28;20602;-69
2024/04/02 07:40:39;;;;;;;6.95;3.08;;;19.10;61.50;;;;;;5016029;28;20496;-70
2024/04/02 07:43:08;;;;;;;3.72;2.00;;;19.10;61.70;;;;;;5018828;28;20052;-70
2024/04/02 07:45:34;;;;;;;3.70;2.15;;;19.10;61.60;;;;;;5016015;28;20033;-69
2024/04/02 07:48:00;;;;;;;4.10;1.92;;;19.10;61.70;;;;;;5015609;28;20034;-70
2024/04/02 07:50:35;;;;;;;5.72;2.13;;;19.10;61.60;;;;;;4984654;28;20212;-69
2024/04/02 07:53:00;;;;;;;3.33;1.58;;;19.10;61.90;;;;;;5014115;28;20033;-69
2024/04/02 07:55:26;;;;;;;4.10;2.10;;;19.10;61.70;;;;;;5015392;28;20047;-70
2024/04/02 07:57:52;;;;;;;3.97;2.13;;;19.10;62.00;;;;;;5015548;28;20033;-69
2024/04/02 08:00:18;;;;;;;3.15;2.13;;;19.10;61.90;;;;;;5016707;28;20501;-69
2024/04/02 08:02:45;;;;;;;5.43;2.35;;;19.10;62.00;;;;;;4995262;28;20038;-70
2024/04/02 08:05:11;;;;;;;4.10;1.73;;;19.10;61.70;;;;;;5016932;28;20088;-70
2024/04/02 08:07:36;;;;;;;4.95;2.20;;;19.10;61.80;;;;;;5019199;28;20065;-70
2024/04/02 08:10:02;;;;;;;5.82;1.88;;;19.10;61.70;;;;;;5016944;28;20030;-69
2024/04/02 08:12:27;;;;;;;3.92;2.15;;;19.10;61.70;;;;;;5015549;28;20455;-69
2024/04/02 08:14:53;;;;;;;3.15;2.10;;;19.10;61.50;;;;;;5002348;28;20078;-69
2024/04/02 08:17:18;;;;;;;2.75;2.00;;;19.20;61.60;;;;;;5016902;28;20041;-69
2024/04/02 08:19:44;;;;;;;4.30;2.30;;;19.20;61.50;;;;;;5016085;28;20514;-69
2024/04/02 08:22:09;;;;;;;3.17;1.95;;;19.20;61.30;;;;;;5016817;28;20053;-69
2024/04/02 08:24:35;;;;;;;3.72;2.25;;;19.30;61.10;;;;;;4999378;28;20041;-68
2024/04/02 08:27:02;;;;;;;5.50;2.13;;;19.40;61.00;;;;;;5014147;28;20030;-69
2024/04/02 08:29:28;;;;;;;3.97;1.90;;;19.50;60.80;;;;;;4997270;28;20050;-69
2024/04/02 08:31:53;;;;;;;3.88;2.20;;;19.60;60.50;;;;;;5014956;28;20213;-70
2024/04/02 08:34:19;;;;;;;4.05;2.08;;;19.70;60.20;;;;;;5016907;28;20068;-69
2024/04/02 08:36:44;;;;;;;4.07;2.00;;;19.90;60.00;;;;;;5016317;28;20059;-69
2024/04/02 08:39:10;;;;;;;3.30;2.00;;;20.00;59.80;;;;;;5014893;28;20492;-69
2024/04/02 08:41:41;;;;;;;4.15;1.90;;;20.10;59.60;;;;;;5016628;28;20087;-68
2024/04/02 08:44:07;;;;;;;4.22;1.92;;;20.20;59.40;;;;;;4986141;28;20440;-65
2024/04/02 08:46:33;;;;;;;3.25;1.70;;;20.20;59.20;;;;;;5014652;28;20042;-69
2024/04/02 08:48:59;;;;;;;4.35;1.67;;;20.30;59.10;;;;;;5016208;28;20034;-69
2024/04/02 08:51:27;;;;;;;4.20;1.65;;;20.30;59.00;;;;;;5019270;28;20037;-69
2024/04/02 08:53:53;;;;;;;2.17;1.45;;;20.40;58.90;;;;;;5012802;28;20048;-66
2024/04/02 08:56:18;;;;;;;2.70;1.60;;;20.50;58.80;;;;;;5008241;28;20042;-70
2024/04/02 08:58:45;;;;;;;3.22;1.85;;;20.60;58.70;;;;;;5017059;28;20034;-69
2024/04/02 09:01:14;;;;;;;3.03;1.80;;;20.60;58.60;;;;;;5013243;28;20065;-70
2024/04/02 09:03:41;;;;;;;3.17;2.25;;;20.60;58.60;;;;;;5000491;28;20038;-68
2024/04/02 09:06:07;;;;;;;2.25;1.45;;;20.60;58.60;;;;;;5011869;28;20124;-70
2024/04/02 09:08:45;;;;;;;2.85;1.50;;;20.60;58.70;;;;;;5017030;28;20128;-69
2024/04/02 09:11:11;;;;;;;3.85;1.63;;;20.50;58.70;;;;;;5016604;28;20037;-69
2024/04/02 09:13:38;;;;;;;2.55;1.40;;;20.60;58.90;;;;;;5018018;28;20070;-68
2024/04/02 09:16:04;;;;;;;3.97;2.30;;;20.50;58.90;;;;;;4996260;28;20040;-68
2024/04/02 09:18:32;;;;;;;3.63;1.85;;;20.50;59.00;;;;;;5016891;28;20046;-68
2024/04/02 09:20:59;;;;;;;3.10;1.77;;;20.40;59.10;;;;;;5020272;28;20033;-68
2024/04/02 09:23:25;;;;;;;2.40;1.83;;;20.40;59.30;;;;;;5015919;28;20161;-66
2024/04/02 09:25:50;;;;;;;2.83;1.77;;;20.30;59.40;;;;;;5013850;28;20265;-67
2024/04/02 09:28:16;;;;;;;2.75;1.60;;;20.30;59.50;;;;;;4997243;28;20379;-66
2024/04/02 09:30:42;;;;;;;1.90;1.20;;;20.30;59.60;;;;;;5020299;28;20512;-70
2024/04/02 09:33:09;;;;;;;3.97;1.60;;;20.20;59.60;;;;;;5020040;28;20112;-69
2024/04/02 09:36:11;;;;;;;2.80;1.48;;;20.20;59.80;;;;;;5015948;28;20041;-67
2024/04/02 09:38:37;;;;;;;1.70;1.23;;;20.10;59.80;;;;;;5016468;28;20044;-68
2024/04/02 09:41:04;;;;;;;2.10;1.40;;;20.00;60.00;;;;;;5021826;28;20476;-68
2024/04/02 09:43:31;;;;;;;2.15;1.50;;;20.00;60.10;;;;;;5000931;28;20045;-69
2024/04/02 09:45:58;;;;;;;1.58;1.20;;;20.00;60.20;;;;;;5016363;28;20581;-69
2024/04/02 09:48:29;;;;;;;3.10;1.48;;;20.00;60.20;;;;;;5000341;28;20042;-69
2024/04/02 09:50:55;;;;;;;1.85;1.45;;;19.90;60.20;;;;;;4999222;28;20041;-69
2024/04/02 09:53:21;;;;;;;2.50;1.60;;;19.90;60.30;;;;;;5016418;28;20049;-69
2024/04/02 09:55:54;;;;;;;3.05;1.33;;;19.90;60.30;;;;;;5005764;28;20087;-69
2024/04/02 09:58:19;;;;;;;1.42;1.05;;;19.90;60.40;;;;;;4996630;28;20041;-70
2024/04/02 10:00:51;;;;;;;2.25;1.30;;;19.80;60.40;;;;;;5005620;28;20435;-69
2024/04/02 10:03:18;;;;;;;2.60;1.42;;;19.80;60.40;;;;;;5019635;28;20520;-69
2024/04/02 10:05:44;;;;;;;2.90;1.48;;;19.80;60.50;;;;;;5010341;28;20076;-68
2024/04/02 10:08:11;;;;;;;2.33;1.35;;;19.80;60.50;;;;;;5015179;28;20042;-68
2024/04/02 10:10:40;;;;;;;4.07;1.88;;;19.80;60.50;;;;;;5001501;28;20033;-69
2024/04/02 10:13:08;;;;;;;2.95;1.33;;;19.80;60.50;;;;;;5020643;28;20049;-69
2024/04/02 10:15:35;;;;;;;1.95;1.15;;;19.80;60.60;;;;;;5019152;28;20508;-69
2024/04/02 10:18:01;;;;;;;2.72;1.40;;;19.80;60.60;;;;;;5018815;28;20072;-68
2024/04/02 10:20:32;;;;;;;2.10;1.30;;;19.80;60.60;;;;;;5015329;28;20037;-69
2024/04/02 10:22:59;;;;;;;2.80;1.42;;;19.80;60.60;;;;;;5015473;28;20056;-69
2024/04/02 10:25:27;;;;;;;2.38;1.33;;;19.70;60.50;;;;;;5020376;28;20092;-70
2024/04/02 10:27:59;;;;;;;2.13;1.20;;;19.80;61.30;;;;;;4973777;28;20072;-70
2024/04/02 10:30:26;;;;;;;2.28;1.65;;;19.70;60.60;;;;;;4983125;28;20045;-70
2024/04/02 10:32:52;;;;;;;1.73;1.30;;;19.70;60.70;;;;;;5011156;28;20448;-70
2024/04/02 10:35:19;;;;;;;2.70;1.40;;;19.70;60.80;;;;;;5015740;28;20646;-68
2024/04/02 10:37:47;;;;;;;1.48;1.10;;;19.60;60.80;;;;;;4992996;28;20103;-67
2024/04/02 10:40:13;;;;;;;2.10;1.52;;;19.60;60.90;;;;;;5014908;28;20527;-70
2024/04/02 10:42:39;;;;;;;2.95;1.55;;;19.60;60.90;;;;;;5016898;28;20337;-70
2024/04/02 10:45:07;;;;;;;1.92;1.15;;;19.60;61.10;;;;;;5012339;28;20041;-69
2024/04/02 10:47:35;;;;;;;2.35;1.45;;;19.50;61.20;;;;;;4995277;28;20403;-70
2024/04/02 10:50:00;;;;;;;2.60;1.30;;;19.60;61.30;;;;;;4990480;28;20041;-66
2024/04/02 10:52:25;;;;;;;2.05;1.08;;;19.50;61.20;;;;;;4995537;28;20030;-69
2024/04/02 10:54:51;;;;;;;1.60;1.20;;;19.50;61.30;;;;;;4999213;28;20065;-67
2024/04/02 10:57:16;;;;;;;3.55;1.58;;;19.50;61.30;;;;;;4977962;28;20048;-69
2024/04/02 10:59:45;;;;;;;2.78;1.20;;;19.50;61.40;;;;;;4994747;28;20523;-68
2024/04/02 11:02:20;;;;;;;2.05;1.20;;;19.50;61.30;;;;;;4998608;28;20129;-70
2024/04/02 11:04:46;;;;;;;2.17;1.02;;;19.40;61.30;;;;;;4996344;28;20117;-69
2024/04/02 11:07:12;;;;;;;1.63;1.13;;;19.50;61.30;;;;;;4994949;28;20173;-68
2024/04/02 11:09:40;;;;;;;1.52;1.00;;;19.50;61.30;;;;;;4983315;28;20034;-69
2024/04/02 11:12:09;;;;;;;2.00;1.10;;;19.50;61.40;;;;;;5018782;28;20036;-68
2024/04/02 11:14:38;;;;;;;1.95;1.15;;;19.50;61.30;;;;;;5001372;28;20033;-69
2024/04/02 11:17:05;;;;;;;1.73;0.90;;;19.40;61.40;;;;;;5017353;28;20243;-69
2024/04/02 11:19:31;;;;;;;1.90;1.15;;;19.40;61.50;;;;;;5012740;28;20124;-68
2024/04/02 11:25:03;;;;;;;2.03;1.25;;;19.40;61.60;;;;;;4993694;28;20508;-69
2024/04/02 11:27:30;;;;;;;1.92;0.85;;;19.40;61.50;;;;;;5010123;28;20519;-70
2024/04/02 11:29:56;;;;;;;2.53;0.95;;;19.40;61.50;;;;;;5007047;28;20108;-68
2024/04/02 11:32:22;;;;;;;1.50;0.88;;;19.30;61.40;;;;;;5018239;28;20482;-69
2024/04/02 11:34:57;;;;;;;2.97;1.20;;;19.40;61.50;;;;;;5017295;28;20021;-69
2024/04/02 11:37:23;;;;;;;2.00;1.00;;;19.40;61.50;;;;;;5012780;28;20538;-69
2024/04/02 11:39:48;;;;;;;2.35;1.30;;;19.40;61.40;;;;;;5017831;28;20060;-69
2024/04/02 11:42:14;;;;;;;1.90;1.15;;;19.40;61.40;;;;;;5018516;28;20030;-69
2024/04/02 11:44:40;;;;;;;1.77;0.82;;;19.40;61.50;;;;;;5002432;28;20107;-69
2024/04/02 11:47:05;;;;;;;1.23;0.70;;;19.40;61.50;;;;;;5015097;28;20033;-69
2024/04/02 11:49:31;;;;;;;1.35;0.90;;;19.40;61.40;;;;;;5016450;28;20055;-67
2024/04/02 11:51:56;;;;;;;1.05;0.70;;;19.40;61.50;;;;;;5012585;28;20036;-69
2024/04/02 11:54:21;;;;;;;2.33;1.20;;;19.40;61.60;;;;;;5016416;28;20468;-69
2024/04/02 12:02:16;;;;;;;1.05;0.82;;;19.40;61.70;;;;;;5015787;28;20036;-70
2024/04/02 12:04:42;;;;;;;1.67;0.95;;;19.30;61.60;;;;;;5016648;28;20501;-70
2024/04/02 12:07:07;;;;;;;1.35;0.90;;;19.30;61.60;;;;;;5005908;28;20049;-69
2024/04/02 12:09:33;;;;;;;1.65;0.80;;;19.30;61.60;;;;;;5017850;28;20029;-68
2024/04/02 12:11:58;;;;;;;2.10;1.10;;;19.30;61.60;;;;;;5014977;28;20092;-69
2024/04/02 12:14:23;;;;;;;1.23;0.90;;;19.30;61.60;;;;;;5017536;28;20048;-69
2024/04/02 12:16:49;;;;;;;1.40;0.90;;;19.30;61.60;;;;;;5017035;28;20524;-69
2024/04/02 12:19:14;;;;;;;2.40;0.90;;;19.30;61.60;;;;;;5015900;28;20030;-69
2024/04/02 12:21:40;;;;;;;1.08;0.85;;;19.30;61.60;;;;;;4997740;28;20266;-68
2024/04/02 12:24:06;;;;;;;1.13;0.70;;;19.30;61.50;;;;;;5015427;28;20044;-69
2024/04/02 12:26:31;;;;;;;1.15;0.80;;;19.30;61.40;;;;;;5006950;28;20123;-66
2024/04/02 12:28:57;;;;;;;1.23;0.70;;;19.30;61.20;;;;;;5014060;28;20040;-69
2024/04/02 12:31:22;;;;;;;1.77;0.77;;;19.40;61.20;;;;;;5012852;28;20099;-69
2024/04/02 12:33:48;;;;;;;1.58;0.82;;;19.40;61.10;;;;;;5017481;28;20804;-69
2024/04/02 12:36:13;;;;;;;1.10;0.77;;;19.40;61.00;;;;;;5012170;28;20044;-68
2024/04/02 12:38:39;;;;;;;1.95;0.93;;;19.50;61.00;;;;;;4998393;28;20120;-68
2024/04/02 12:41:04;;;;;;;0.93;0.60;;;19.50;60.90;;;;;;5016487;28;20496;-69
2024/04/02 12:43:30;;;;;;;1.45;0.70;;;19.50;60.90;;;;;;5017548;28;20033;-70
2024/04/02 12:45:55;;;;;;;1.13;0.73;;;19.50;60.90;;;;;;5016800;28;20103;-69
2024/04/02 12:48:21;;;;;;;0.95;0.85;;;19.50;60.90;;;;;;5015435;28;20037;-70
2024/04/02 12:50:51;;;;;;;0.95;0.73;;;19.50;60.90;;;;;;5000918;28;20136;-69
2024/04/02 12:53:16;;;;;;;1.90;1.10;;;19.50;60.90;;;;;;5013503;28;20037;-69